sensor_id;sensor_type;location;lat;lon;timestamp;pressure;altitude;pressure_sealevel;temperature;humidity
2214;BME280;1113;42.018;23.986;2022-07-12T00:01:22;93197.22;;;10.04;100.00
2214;BME280;1113;42.018;23.986;2022-07-12T00:03:49;93195.69;;;9.90;100.00
2214;BME280;1113;42.018;23.986;2022-07-12T00:06:18;93195.31;;;9.82;100.00
2214;BME280;1113;42.018;23.986;2022-07-12T00:08:45;93187.75;;;9.86;100.00
2214;BME280;1113;42.018;23.986;2022-07-12T00:11:12;93196.16;;;9.78;100.00
2214;BME280;1113;42.018;23.986;2022-07-12T00:13:39;93190.44;;;9.81;100.00
2214;BME280;1113;42.018;23.986;2022-07-12T00:16:06;93197.69;;;10.06;100.00
2214;BME280;1113;42.018;23.986;2022-07-12T00:18:33;93195.78;;;9.85;100.00
2214;BME280;1113;42.018;23.986;2022-07-12T00:21:00;93204.94;;;9.77;100.00
2214;BME280;1113;42.018;23.986;2022-07-12T00:23:28;93196.34;;;10.09;100.00
2214;BME280;1113;42.018;23.986;2022-07-12T00:25:55;93199.81;;;9.91;100.00
2214;BME280;1113;42.018;23.986;2022-07-12T00:28:22;93204.19;;;9.63;100.00
2214;BME280;1113;42.018;23.986;2022-07-12T00:30:49;93206.09;;;9.71;100.00
2214;BME280;1113;42.018;23.986;2022-07-12T00:33:16;93212.41;;;9.78;100.00
2214;BME280;1113;42.018;23.986;2022-07-12T00:35:42;93215.44;;;9.67;100.00
2214;BME280;1113;42.018;23.986;2022-07-12T00:38:09;93212.00;;;9.58;100.00
2214;BME280;1113;42.018;23.986;2022-07-12T00:40:37;93212.19;;;9.47;100.00
2214;BME280;1113;42.018;23.986;2022-07-12T00:43:04;93222.31;;;9.58;100.00
2214;BME280;1113;42.018;23.986;2022-07-12T00:45:31;93218.28;;;9.38;100.00
2214;BME280;1113;42.018;23.986;2022-07-12T00:47:59;93224.59;;;8.99;100.00
2214;BME280;1113;42.018;23.986;2022-07-12T00:50:26;93220.28;;;8.95;100.00
2214;BME280;1113;42.018;23.986;2022-07-12T00:52:54;93225.75;;;9.07;100.00
2214;BME280;1113;42.018;23.986;2022-07-12T00:55:22;93228.53;;;9.10;100.00
2214;BME280;1113;42.018;23.986;2022-07-12T00:57:51;93225.34;;;9.00;100.00
2214;BME280;1113;42.018;23.986;2022-07-12T01:00:20;93229.44;;;9.01;100.00
2214;BME280;1113;42.018;23.986;2022-07-12T01:02:48;93227.00;;;9.09;100.00
2214;BME280;1113;42.018;23.986;2022-07-12T01:05:15;93215.78;;;9.33;100.00
2214;BME280;1113;42.018;23.986;2022-07-12T01:07:42;93217.72;;;9.41;100.00
2214;BME280;1113;42.018;23.986;2022-07-12T01:10:11;93223.75;;;9.04;100.00
2214;BME280;1113;42.018;23.986;2022-07-12T01:12:38;93226.59;;;9.02;100.00
2214;BME280;1113;42.018;23.986;2022-07-12T01:15:08;93220.88;;;9.05;100.00
2214;BME280;1113;42.018;23.986;2022-07-12T01:17:35;93216.78;;;9.04;100.00
2214;BME280;1113;42.018;23.986;2022-07-12T01:20:04;93215.00;;;9.18;100.00
2214;BME280;1113;42.018;23.986;2022-07-12T01:22:33;93215.22;;;9.36;100.00
2214;BME280;1113;42.018;23.986;2022-07-12T01:25:03;93208.19;;;9.41;100.00
2214;BME280;1113;42.018;23.986;2022-07-12T01:27:32;93204.75;;;9.60;100.00
2214;BME280;1113;42.018;23.986;2022-07-12T01:30:01;93202.97;;;9.14;100.00
2214;BME280;1113;42.018;23.986;2022-07-12T01:32:27;93207.84;;;8.64;100.00
2214;BME280;1113;42.018;23.986;2022-07-12T01:34:57;93207.09;;;8.64;100.00
2214;BME280;1113;42.018;23.986;2022-07-12T01:37:28;93219.88;;;8.88;100.00
2214;BME280;1113;42.018;23.986;2022-07-12T01:39:57;93219.34;;;9.04;100.00
2214;BME280;1113;42.018;23.986;2022-07-12T01:42:27;93219.56;;;9.08;100.00
2214;BME280;1113;42.018;23.986;2022-07-12T01:44:54;93215.47;;;9.21;100.00
2214;BME280;1113;42.018;23.986;2022-07-12T01:47:23;93217.22;;;8.93;100.00
2214;BME280;1113;42.018;23.986;2022-07-12T01:49:50;93218.00;;;8.74;100.00
2214;BME280;1113;42.018;23.986;2022-07-12T01:52:18;93226.19;;;8.95;100.00
2214;BME280;1113;42.018;23.986;2022-07-12T01:54:46;93216.19;;;8.75;100.00
2214;BME280;1113;42.018;23.986;2022-07-12T01:57:13;93210.44;;;8.45;100.00
2214;BME280;1113;42.018;23.986;2022-07-12T01:59:42;93216.22;;;8.37;100.00
2214;BME280;1113;42.018;23.986;2022-07-12T02:02:09;93223.66;;;8.39;100.00
2214;BME280;1113;42.018;23.986;2022-07-12T02:04:36;93218.91;;;8.46;100.00
2214;BME280;1113;42.018;23.986;2022-07-12T02:07:04;93211.00;;;8.42;100.00
2214;BME280;1113;42.018;23.986;2022-07-12T02:09:32;93206.06;;;8.46;100.00
2214;BME280;1113;42.018;23.986;2022-07-12T02:11:59;93206.19;;;8.36;100.00
2214;BME280;1113;42.018;23.986;2022-07-12T02:14:26;93203.63;;;8.54;100.00
2214;BME280;1113;42.018;23.986;2022-07-12T02:16:54;93207.94;;;8.59;100.00
2214;BME280;1113;42.018;23.986;2022-07-12T02:19:21;93210.09;;;8.52;100.00
2214;BME280;1113;42.018;23.986;2022-07-12T02:21:48;93213.91;;;8.36;100.00
2214;BME280;1113;42.018;23.986;2022-07-12T02:24:15;93212.59;;;8.14;100.00
2214;BME280;1113;42.018;23.986;2022-07-12T02:26:42;93213.13;;;7.93;100.00
2214;BME280;1113;42.018;23.986;2022-07-12T02:29:09;93215.34;;;7.80;100.00
2214;BME280;1113;42.018;23.986;2022-07-12T02:31:37;93211.97;;;7.80;100.00
2214;BME280;1113;42.018;23.986;2022-07-12T02:34:06;93211.88;;;7.90;100.00
2214;BME280;1113;42.018;23.986;2022-07-12T02:36:33;93213.06;;;7.98;100.00
2214;BME280;1113;42.018;23.986;2022-07-12T02:39:01;93218.03;;;8.13;100.00
2214;BME280;1113;42.018;23.986;2022-07-12T02:41:29;93223.53;;;8.25;100.00
2214;BME280;1113;42.018;23.986;2022-07-12T02:43:56;93228.66;;;8.49;100.00
2214;BME280;1113;42.018;23.986;2022-07-12T02:46:23;93230.47;;;8.24;100.00
2214;BME280;1113;42.018;23.986;2022-07-12T02:48:50;93231.94;;;7.88;100.00
2214;BME280;1113;42.018;23.986;2022-07-12T02:51:19;93230.91;;;7.89;100.00
2214;BME280;1113;42.018;23.986;2022-07-12T02:53:46;93234.09;;;7.81;100.00
2214;BME280;1113;42.018;23.986;2022-07-12T02:56:13;93234.19;;;7.71;100.00
2214;BME280;1113;42.018;23.986;2022-07-12T02:58:40;93233.00;;;7.87;100.00
2214;BME280;1113;42.018;23.986;2022-07-12T03:01:07;93241.44;;;8.11;100.00
2214;BME280;1113;42.018;23.986;2022-07-12T03:03:34;93238.78;;;7.98;100.00
2214;BME280;1113;42.018;23.986;2022-07-12T03:06:01;93244.59;;;7.84;100.00
2214;BME280;1113;42.018;23.986;2022-07-12T03:08:29;93245.06;;;8.10;100.00
2214;BME280;1113;42.018;23.986;2022-07-12T03:10:56;93243.66;;;8.18;100.00
2214;BME280;1113;42.018;23.986;2022-07-12T03:13:23;93249.41;;;7.91;100.00
2214;BME280;1113;42.018;23.986;2022-07-12T03:15:50;93250.56;;;7.75;100.00
2214;BME280;1113;42.018;23.986;2022-07-12T03:18:17;93249.31;;;7.72;100.00
2214;BME280;1113;42.018;23.986;2022-07-12T03:20:44;93250.38;;;7.95;100.00
2214;BME280;1113;42.018;23.986;2022-07-12T03:23:11;93251.25;;;8.09;100.00
2214;BME280;1113;42.018;23.986;2022-07-12T03:25:39;93255.41;;;8.24;100.00
2214;BME280;1113;42.018;23.986;2022-07-12T03:28:06;93264.03;;;8.38;100.00
2214;BME280;1113;42.018;23.986;2022-07-12T03:30:34;93260.22;;;8.54;100.00
2214;BME280;1113;42.018;23.986;2022-07-12T03:33:00;93260.09;;;8.65;100.00
2214;BME280;1113;42.018;23.986;2022-07-12T03:35:27;93260.84;;;8.65;100.00
2214;BME280;1113;42.018;23.986;2022-07-12T03:37:54;93258.69;;;8.30;100.00
2214;BME280;1113;42.018;23.986;2022-07-12T03:40:21;93265.63;;;8.10;100.00
2214;BME280;1113;42.018;23.986;2022-07-12T03:42:51;93256.94;;;8.25;100.00
2214;BME280;1113;42.018;23.986;2022-07-12T03:45:18;93257.41;;;8.08;100.00
2214;BME280;1113;42.018;23.986;2022-07-12T03:47:47;93262.50;;;8.13;100.00
2214;BME280;1113;42.018;23.986;2022-07-12T03:50:15;93263.28;;;8.38;100.00
2214;BME280;1113;42.018;23.986;2022-07-12T03:52:42;93261.69;;;8.61;100.00
2214;BME280;1113;42.018;23.986;2022-07-12T03:55:10;93262.38;;;8.85;100.00
2214;BME280;1113;42.018;23.986;2022-07-12T03:57:37;93265.22;;;9.02;100.00
2214;BME280;1113;42.018;23.986;2022-07-12T04:00:08;93263.53;;;9.11;100.00
2214;BME280;1113;42.018;23.986;2022-07-12T04:02:37;93267.19;;;9.24;100.00
2214;BME280;1113;42.018;23.986;2022-07-12T04:05:06;93266.97;;;9.39;100.00
2214;BME280;1113;42.018;23.986;2022-07-12T04:07:33;93269.09;;;9.51;100.00
2214;BME280;1113;42.018;23.986;2022-07-12T04:10:00;93269.16;;;9.46;100.00
2214;BME280;1113;42.018;23.986;2022-07-12T04:12:30;93264.31;;;9.44;100.00
2214;BME280;1113;42.018;23.986;2022-07-12T04:14:57;93266.88;;;9.44;100.00
2214;BME280;1113;42.018;23.986;2022-07-12T04:17:25;93268.50;;;9.54;100.00
2214;BME280;1113;42.018;23.986;2022-07-12T04:19:52;93259.91;;;9.45;100.00
2214;BME280;1113;42.018;23.986;2022-07-12T04:22:19;93255.81;;;9.58;100.00
2214;BME280;1113;42.018;23.986;2022-07-12T04:24:45;93266.41;;;9.42;100.00
2214;BME280;1113;42.018;23.986;2022-07-12T04:27:12;93266.88;;;9.44;100.00
2214;BME280;1113;42.018;23.986;2022-07-12T04:29:39;93262.88;;;9.52;100.00
2214;BME280;1113;42.018;23.986;2022-07-12T04:32:06;93268.72;;;9.58;100.00
2214;BME280;1113;42.018;23.986;2022-07-12T04:34:35;93272.66;;;9.82;100.00
2214;BME280;1113;42.018;23.986;2022-07-12T04:37:02;93277.06;;;10.09;100.00
2214;BME280;1113;42.018;23.986;2022-07-12T04:39:29;93272.00;;;10.18;100.00
2214;BME280;1113;42.018;23.986;2022-07-12T04:41:55;93270.19;;;10.32;100.00
2214;BME280;1113;42.018;23.986;2022-07-12T04:44:22;93266.75;;;10.51;100.00
2214;BME280;1113;42.018;23.986;2022-07-12T04:46:49;93271.31;;;10.40;100.00
2214;BME280;1113;42.018;23.986;2022-07-12T04:49:16;93268.97;;;10.43;100.00
2214;BME280;1113;42.018;23.986;2022-07-12T04:51:44;93272.78;;;10.46;100.00
2214;BME280;1113;42.018;23.986;2022-07-12T04:54:11;93274.34;;;10.69;100.00
2214;BME280;1113;42.018;23.986;2022-07-12T04:56:38;93267.22;;;10.89;100.00
2214;BME280;1113;42.018;23.986;2022-07-12T04:59:05;93273.81;;;11.17;100.00
2214;BME280;1113;42.018;23.986;2022-07-12T05:01:32;93273.16;;;11.34;100.00
2214;BME280;1113;42.018;23.986;2022-07-12T05:03:59;93270.69;;;11.51;100.00
2214;BME280;1113;42.018;23.986;2022-07-12T05:06:26;93269.28;;;11.23;100.00
2214;BME280;1113;42.018;23.986;2022-07-12T05:08:55;93272.28;;;11.38;100.00
2214;BME280;1113;42.018;23.986;2022-07-12T05:11:22;93264.19;;;11.54;100.00
2214;BME280;1113;42.018;23.986;2022-07-12T05:13:49;93271.81;;;11.59;100.00
2214;BME280;1113;42.018;23.986;2022-07-12T05:16:16;93261.28;;;11.78;100.00
2214;BME280;1113;42.018;23.986;2022-07-12T05:18:42;93268.53;;;11.98;100.00
2214;BME280;1113;42.018;23.986;2022-07-12T05:21:09;93263.53;;;12.10;100.00
2214;BME280;1113;42.018;23.986;2022-07-12T05:23:36;93262.03;;;12.18;100.00
2214;BME280;1113;42.018;23.986;2022-07-12T05:26:04;93264.34;;;12.37;100.00
2214;BME280;1113;42.018;23.986;2022-07-12T05:28:31;93261.03;;;12.45;100.00
2214;BME280;1113;42.018;23.986;2022-07-12T05:30:58;93266.25;;;12.53;100.00
2214;BME280;1113;42.018;23.986;2022-07-12T05:33:25;93267.78;;;12.63;100.00
2214;BME280;1113;42.018;23.986;2022-07-12T05:35:52;93265.50;;;12.61;100.00
2214;BME280;1113;42.018;23.986;2022-07-12T05:38:19;93265.50;;;12.70;100.00
2214;BME280;1113;42.018;23.986;2022-07-12T05:40:46;93267.94;;;12.84;100.00
2214;BME280;1113;42.018;23.986;2022-07-12T05:43:14;93260.47;;;13.00;100.00
2214;BME280;1113;42.018;23.986;2022-07-12T05:45:42;93263.38;;;13.15;100.00
2214;BME280;1113;42.018;23.986;2022-07-12T05:48:09;93267.66;;;13.29;100.00
2214;BME280;1113;42.018;23.986;2022-07-12T05:50:36;93266.13;;;13.36;100.00
2214;BME280;1113;42.018;23.986;2022-07-12T05:53:03;93256.97;;;13.39;100.00
2214;BME280;1113;42.018;23.986;2022-07-12T05:55:47;93252.81;;;13.46;100.00
2214;BME280;1113;42.018;23.986;2022-07-12T05:58:15;93260.59;;;13.55;100.00
2214;BME280;1113;42.018;23.986;2022-07-12T06:00:42;93264.06;;;13.76;100.00
2214;BME280;1113;42.018;23.986;2022-07-12T06:03:10;93261.84;;;13.96;100.00
2214;BME280;1113;42.018;23.986;2022-07-12T06:05:37;93253.41;;;14.07;100.00
2214;BME280;1113;42.018;23.986;2022-07-12T06:08:04;93261.94;;;14.16;100.00
2214;BME280;1113;42.018;23.986;2022-07-12T06:10:31;93258.84;;;14.23;100.00
2214;BME280;1113;42.018;23.986;2022-07-12T06:12:59;93253.22;;;14.42;100.00
2214;BME280;1113;42.018;23.986;2022-07-12T06:15:27;93258.22;;;14.56;100.00
2214;BME280;1113;42.018;23.986;2022-07-12T06:17:54;93254.19;;;14.67;100.00
2214;BME280;1113;42.018;23.986;2022-07-12T06:20:21;93247.72;;;14.73;100.00
2214;BME280;1113;42.018;23.986;2022-07-12T06:22:48;93250.41;;;14.85;100.00
2214;BME280;1113;42.018;23.986;2022-07-12T06:25:15;93250.25;;;15.02;100.00
2214;BME280;1113;42.018;23.986;2022-07-12T06:27:42;93254.56;;;15.19;100.00
2214;BME280;1113;42.018;23.986;2022-07-12T06:30:10;93254.31;;;15.12;100.00
2214;BME280;1113;42.018;23.986;2022-07-12T06:32:39;93243.97;;;15.24;100.00
2214;BME280;1113;42.018;23.986;2022-07-12T06:35:06;93243.66;;;15.26;100.00
2214;BME280;1113;42.018;23.986;2022-07-12T06:37:33;93243.03;;;15.41;100.00
2214;BME280;1113;42.018;23.986;2022-07-12T06:40:00;93242.13;;;15.58;100.00
2214;BME280;1113;42.018;23.986;2022-07-12T06:42:27;93244.66;;;15.66;100.00
2214;BME280;1113;42.018;23.986;2022-07-12T06:44:54;93240.44;;;15.74;100.00
2214;BME280;1113;42.018;23.986;2022-07-12T06:47:21;93237.09;;;15.98;100.00
2214;BME280;1113;42.018;23.986;2022-07-12T06:49:52;93236.25;;;16.18;100.00
2214;BME280;1113;42.018;23.986;2022-07-12T06:52:19;93239.50;;;16.39;100.00
2214;BME280;1113;42.018;23.986;2022-07-12T06:54:46;93241.53;;;16.58;100.00
2214;BME280;1113;42.018;23.986;2022-07-12T06:57:12;93242.00;;;16.73;100.00
2214;BME280;1113;42.018;23.986;2022-07-12T06:59:39;93238.69;;;16.88;100.00
2214;BME280;1113;42.018;23.986;2022-07-12T07:02:06;93241.47;;;17.07;100.00
2214;BME280;1113;42.018;23.986;2022-07-12T07:04:33;93237.72;;;17.20;93.50
2214;BME280;1113;42.018;23.986;2022-07-12T07:07:01;93238.78;;;17.31;97.33
2214;BME280;1113;42.018;23.986;2022-07-12T07:09:28;93225.75;;;17.47;90.17
2214;BME280;1113;42.018;23.986;2022-07-12T07:11:55;93241.75;;;17.74;93.96
2214;BME280;1113;42.018;23.986;2022-07-12T07:14:22;93239.47;;;17.88;87.98
2214;BME280;1113;42.018;23.986;2022-07-12T07:16:49;93235.34;;;18.03;86.89
2214;BME280;1113;42.018;23.986;2022-07-12T07:19:16;93236.69;;;18.12;90.10
2214;BME280;1113;42.018;23.986;2022-07-12T07:21:42;93236.34;;;18.29;86.45
2214;BME280;1113;42.018;23.986;2022-07-12T07:24:14;93221.75;;;18.44;65.83
2214;BME280;1113;42.018;23.986;2022-07-12T07:26:40;93225.19;;;18.48;62.39
2214;BME280;1113;42.018;23.986;2022-07-12T07:29:09;93224.06;;;18.65;64.88
2214;BME280;1113;42.018;23.986;2022-07-12T07:31:53;93222.53;;;18.80;63.81
2214;BME280;1113;42.018;23.986;2022-07-12T07:34:20;93230.72;;;18.98;63.19
2214;BME280;1113;42.018;23.986;2022-07-12T07:36:47;93217.84;;;19.08;60.71
2214;BME280;1113;42.018;23.986;2022-07-12T07:39:15;93225.06;;;19.15;57.86
2214;BME280;1113;42.018;23.986;2022-07-12T07:41:42;93220.25;;;19.17;56.90
2214;BME280;1113;42.018;23.986;2022-07-12T07:44:09;93223.09;;;19.28;57.47
2214;BME280;1113;42.018;23.986;2022-07-12T07:46:36;93220.19;;;19.33;54.39
2214;BME280;1113;42.018;23.986;2022-07-12T07:49:03;93215.38;;;19.35;54.08
2214;BME280;1113;42.018;23.986;2022-07-12T07:51:30;93226.25;;;19.37;54.63
2214;BME280;1113;42.018;23.986;2022-07-12T07:53:56;93220.38;;;19.63;56.56
2214;BME280;1113;42.018;23.986;2022-07-12T07:56:25;93214.97;;;19.75;54.78
2214;BME280;1113;42.018;23.986;2022-07-12T07:58:52;93221.19;;;19.67;53.55
2214;BME280;1113;42.018;23.986;2022-07-12T08:01:19;93219.28;;;19.44;54.12
2214;BME280;1113;42.018;23.986;2022-07-12T08:03:45;93214.50;;;19.69;54.73
2214;BME280;1113;42.018;23.986;2022-07-12T08:06:12;93215.63;;;19.91;54.12
2214;BME280;1113;42.018;23.986;2022-07-12T08:08:39;93214.22;;;19.97;51.35
2214;BME280;1113;42.018;23.986;2022-07-12T08:11:06;93217.06;;;19.89;52.65
2214;BME280;1113;42.018;23.986;2022-07-12T08:13:34;93218.19;;;19.88;50.11
2214;BME280;1113;42.018;23.986;2022-07-12T08:16:01;93212.47;;;19.82;50.52
2214;BME280;1113;42.018;23.986;2022-07-12T08:18:28;93206.84;;;19.80;51.16
2214;BME280;1113;42.018;23.986;2022-07-12T08:20:54;93210.03;;;19.93;51.45
2214;BME280;1113;42.018;23.986;2022-07-12T08:23:21;93207.69;;;20.10;49.41
2214;BME280;1113;42.018;23.986;2022-07-12T08:25:50;93196.19;;;20.18;51.16
2214;BME280;1113;42.018;23.986;2022-07-12T08:28:17;93203.97;;;20.38;50.83
2214;BME280;1113;42.018;23.986;2022-07-12T08:30:45;93203.91;;;20.08;47.12
2214;BME280;1113;42.018;23.986;2022-07-12T08:33:12;93201.59;;;19.80;51.93
2214;BME280;1113;42.018;23.986;2022-07-12T08:35:39;93198.03;;;19.92;48.89
2214;BME280;1113;42.018;23.986;2022-07-12T08:38:06;93205.56;;;20.20;52.24
2214;BME280;1113;42.018;23.986;2022-07-12T08:40:34;93201.47;;;20.22;49.65
2214;BME280;1113;42.018;23.986;2022-07-12T08:43:00;93203.44;;;20.52;49.52
2214;BME280;1113;42.018;23.986;2022-07-12T08:45:27;93197.22;;;20.63;50.52
2214;BME280;1113;42.018;23.986;2022-07-12T08:47:56;93206.84;;;20.82;50.00
2214;BME280;1113;42.018;23.986;2022-07-12T08:50:22;93197.91;;;20.87;46.57
2214;BME280;1113;42.018;23.986;2022-07-12T08:52:51;93194.22;;;20.91;48.35
2214;BME280;1113;42.018;23.986;2022-07-12T08:55:21;93193.22;;;21.03;47.12
2214;BME280;1113;42.018;23.986;2022-07-12T08:57:49;93186.56;;;21.13;47.27
2214;BME280;1113;42.018;23.986;2022-07-12T09:00:17;93190.31;;;21.11;49.82
2214;BME280;1113;42.018;23.986;2022-07-12T09:02:47;93183.28;;;20.86;46.96
2214;BME280;1113;42.018;23.986;2022-07-12T09:05:18;93187.38;;;20.83;49.82
2214;BME280;1113;42.018;23.986;2022-07-12T09:07:45;93189.59;;;21.15;48.91
2214;BME280;1113;42.018;23.986;2022-07-12T09:10:13;93189.41;;;20.97;45.32
2214;BME280;1113;42.018;23.986;2022-07-12T09:12:40;93183.78;;;20.98;50.38
2214;BME280;1113;42.018;23.986;2022-07-12T09:15:13;93169.91;;;20.98;48.63
2214;BME280;1113;42.018;23.986;2022-07-12T09:17:42;93180.25;;;21.17;48.64
2214;BME280;1113;42.018;23.986;2022-07-12T09:20:12;93184.00;;;21.16;45.39
2214;BME280;1113;42.018;23.986;2022-07-12T09:22:50;93183.34;;;21.23;46.02
2214;BME280;1113;42.018;23.986;2022-07-12T09:25:18;93175.59;;;20.43;45.17
2214;BME280;1113;42.018;23.986;2022-07-12T09:27:56;93167.50;;;20.82;48.34
2214;BME280;1113;42.018;23.986;2022-07-12T09:30:25;93171.44;;;20.99;47.38
2214;BME280;1113;42.018;23.986;2022-07-12T09:32:54;93171.47;;;21.36;48.40
2214;BME280;1113;42.018;23.986;2022-07-12T09:35:40;93173.91;;;21.55;47.88
2214;BME280;1113;42.018;23.986;2022-07-12T09:38:26;93176.00;;;21.39;49.50
2214;BME280;1113;42.018;23.986;2022-07-12T09:40:54;93175.78;;;21.55;48.75
2214;BME280;1113;42.018;23.986;2022-07-12T09:43:23;93181.56;;;21.71;46.04
2214;BME280;1113;42.018;23.986;2022-07-12T09:45:50;93180.91;;;21.85;45.65
2214;BME280;1113;42.018;23.986;2022-07-12T09:48:19;93181.06;;;22.02;46.79
2214;BME280;1113;42.018;23.986;2022-07-12T09:50:48;93170.53;;;21.99;47.68
2214;BME280;1113;42.018;23.986;2022-07-12T09:53:20;93171.75;;;22.09;47.76
2214;BME280;1113;42.018;23.986;2022-07-12T09:55:53;93164.09;;;21.49;48.18
2214;BME280;1113;42.018;23.986;2022-07-12T09:58:23;93169.25;;;21.82;47.43
2214;BME280;1113;42.018;23.986;2022-07-12T10:00:51;93177.34;;;22.03;48.16
2214;BME280;1113;42.018;23.986;2022-07-12T10:03:22;93169.94;;;22.16;48.59
2214;BME280;1113;42.018;23.986;2022-07-12T10:05:53;93173.91;;;21.99;48.58
2214;BME280;1113;42.018;23.986;2022-07-12T10:08:21;93169.13;;;22.09;43.70
2214;BME280;1113;42.018;23.986;2022-07-12T10:10:49;93160.97;;;21.80;45.67
2214;BME280;1113;42.018;23.986;2022-07-12T10:13:19;93157.09;;;22.08;47.03
2214;BME280;1113;42.018;23.986;2022-07-12T10:15:47;93154.25;;;22.34;46.94
2214;BME280;1113;42.018;23.986;2022-07-12T10:18:16;93154.41;;;22.62;46.88
2214;BME280;1113;42.018;23.986;2022-07-12T10:20:45;93152.88;;;22.54;43.65
2214;BME280;1113;42.018;23.986;2022-07-12T10:23:35;93142.72;;;22.56;47.57
2214;BME280;1113;42.018;23.986;2022-07-12T10:26:24;93140.50;;;22.58;45.95
2214;BME280;1113;42.018;23.986;2022-07-12T10:28:59;93141.53;;;22.43;45.43
2214;BME280;1113;42.018;23.986;2022-07-12T10:31:28;93134.88;;;22.63;46.92
2214;BME280;1113;42.018;23.986;2022-07-12T10:34:14;93145.44;;;22.78;44.93
2214;BME280;1113;42.018;23.986;2022-07-12T10:37:08;93133.25;;;22.41;44.69
2214;BME280;1113;42.018;23.986;2022-07-12T10:39:36;93133.03;;;22.71;44.71
2214;BME280;1113;42.018;23.986;2022-07-12T10:42:13;93135.59;;;22.60;43.29
2214;BME280;1113;42.018;23.986;2022-07-12T10:44:43;93132.59;;;22.58;48.87
2214;BME280;1113;42.018;23.986;2022-07-12T10:47:16;93133.03;;;22.75;46.62
2214;BME280;1113;42.018;23.986;2022-07-12T10:49:51;93126.69;;;22.83;44.90
2214;BME280;1113;42.018;23.986;2022-07-12T10:52:26;93121.75;;;22.78;48.94
2214;BME280;1113;42.018;23.986;2022-07-12T10:55:15;93113.59;;;22.93;47.79
2214;BME280;1113;42.018;23.986;2022-07-12T10:57:43;93105.19;;;22.66;43.69
2214;BME280;1113;42.018;23.986;2022-07-12T11:00:13;93107.09;;;22.77;46.06
2214;BME280;1113;42.018;23.986;2022-07-12T11:02:40;93112.69;;;22.68;45.92
2214;BME280;1113;42.018;23.986;2022-07-12T11:05:08;93107.56;;;22.96;47.91
2214;BME280;1113;42.018;23.986;2022-07-12T11:07:35;93108.75;;;23.13;46.44
2214;BME280;1113;42.018;23.986;2022-07-12T11:10:05;93101.59;;;23.21;46.15
2214;BME280;1113;42.018;23.986;2022-07-12T11:12:32;93106.88;;;23.17;47.03
2214;BME280;1113;42.018;23.986;2022-07-12T11:15:00;93103.84;;;23.15;48.13
2214;BME280;1113;42.018;23.986;2022-07-12T11:17:31;93092.94;;;23.17;44.10
2214;BME280;1113;42.018;23.986;2022-07-12T11:20:07;93098.59;;;23.29;46.57
2214;BME280;1113;42.018;23.986;2022-07-12T11:22:36;93105.78;;;23.43;45.25
2214;BME280;1113;42.018;23.986;2022-07-12T11:25:06;93097.09;;;23.39;45.63
2214;BME280;1113;42.018;23.986;2022-07-12T11:27:34;93100.53;;;23.43;44.05
2214;BME280;1113;42.018;23.986;2022-07-12T11:30:01;93103.06;;;23.01;45.57
2214;BME280;1113;42.018;23.986;2022-07-12T11:32:39;93104.59;;;23.09;46.46
2214;BME280;1113;42.018;23.986;2022-07-12T11:35:20;93104.19;;;22.96;48.46
2214;BME280;1113;42.018;23.986;2022-07-12T11:37:50;93102.31;;;23.00;45.68
2214;BME280;1113;42.018;23.986;2022-07-12T11:40:22;93094.44;;;23.18;46.98
2214;BME280;1113;42.018;23.986;2022-07-12T11:42:53;93085.94;;;22.48;45.98
2214;BME280;1113;42.018;23.986;2022-07-12T11:45:21;93091.66;;;22.75;45.14
2214;BME280;1113;42.018;23.986;2022-07-12T11:47:49;64690.84;;;-142.54;100.00
2214;BME280;1113;42.018;23.986;2022-07-12T11:50:18;64690.84;;;-142.54;100.00
2214;BME280;1113;42.018;23.986;2022-07-12T11:52:45;64690.84;;;-142.54;100.00
2214;BME280;1113;42.018;23.986;2022-07-12T11:55:12;64690.84;;;-142.54;100.00
2214;BME280;1113;42.018;23.986;2022-07-12T11:57:39;64690.84;;;-142.54;100.00
2214;BME280;1113;42.018;23.986;2022-07-12T12:00:17;64690.84;;;-142.54;100.00
2214;BME280;1113;42.018;23.986;2022-07-12T12:02:44;64690.84;;;-142.54;100.00
2214;BME280;1113;42.018;23.986;2022-07-12T12:05:12;64690.84;;;-142.54;100.00
2214;BME280;1113;42.018;23.986;2022-07-12T12:07:40;64690.84;;;-142.54;100.00
2214;BME280;1113;42.018;23.986;2022-07-12T12:10:11;64690.84;;;-142.54;100.00
2214;BME280;1113;42.018;23.986;2022-07-12T12:12:42;64690.84;;;-142.54;100.00
2214;BME280;1113;42.018;23.986;2022-07-12T12:15:10;64690.84;;;-142.54;100.00
2214;BME280;1113;42.018;23.986;2022-07-12T12:17:42;64690.84;;;-142.54;100.00
2214;BME280;1113;42.018;23.986;2022-07-12T12:20:15;64690.84;;;-142.54;100.00
2214;BME280;1113;42.018;23.986;2022-07-12T12:22:43;64690.84;;;-142.54;100.00
2214;BME280;1113;42.018;23.986;2022-07-12T12:25:10;64690.84;;;-142.54;100.00
2214;BME280;1113;42.018;23.986;2022-07-12T12:27:42;64690.84;;;-142.54;100.00
2214;BME280;1113;42.018;23.986;2022-07-12T12:30:09;64690.84;;;-142.54;100.00
2214;BME280;1113;42.018;23.986;2022-07-12T12:32:47;64690.84;;;-142.54;100.00
2214;BME280;1113;42.018;23.986;2022-07-12T12:35:18;64690.84;;;-142.54;100.00
2214;BME280;1113;42.018;23.986;2022-07-12T12:37:53;64690.84;;;-142.54;100.00
2214;BME280;1113;42.018;23.986;2022-07-12T12:40:22;64690.84;;;-142.54;100.00
2214;BME280;1113;42.018;23.986;2022-07-12T12:42:49;64690.84;;;-142.54;100.00
2214;BME280;1113;42.018;23.986;2022-07-12T12:45:18;64690.84;;;-142.54;100.00
2214;BME280;1113;42.018;23.986;2022-07-12T12:47:56;64690.84;;;-142.54;100.00
2214;BME280;1113;42.018;23.986;2022-07-12T12:50:38;64690.84;;;-142.54;100.00
2214;BME280;1113;42.018;23.986;2022-07-12T12:53:10;64690.84;;;-142.54;100.00
2214;BME280;1113;42.018;23.986;2022-07-12T12:55:37;64690.84;;;-142.54;100.00
2214;BME280;1113;42.018;23.986;2022-07-12T12:58:04;64690.84;;;-142.54;100.00
2214;BME280;1113;42.018;23.986;2022-07-12T13:00:31;64690.84;;;-142.54;100.00
2214;BME280;1113;42.018;23.986;2022-07-12T13:02:58;64690.84;;;-142.54;100.00
2214;BME280;1113;42.018;23.986;2022-07-12T13:05:27;64690.84;;;-142.54;100.00
2214;BME280;1113;42.018;23.986;2022-07-12T13:07:55;64690.84;;;-142.54;100.00
2214;BME280;1113;42.018;23.986;2022-07-12T13:10:22;64690.84;;;-142.54;100.00
2214;BME280;1113;42.018;23.986;2022-07-12T13:12:49;64690.84;;;-142.54;100.00